Warrenton, Texas
Current Conditions -  °F | °C
As of 8:15 AM on Thursday 29 Jan 2015 (Local Time) from K3T5 Reporting Station
Haze Haze  
Wind Chill: 62°   Ceiling: 300
Heat Index: 62°   Visibility: 4mi
Dew Point: 61°   Wind: 3mph
Humidity: 97%   Direction: 210°SSW
Pressure: 30.2"   Gusts: NA
Location:  30.0108°N, 96.7162°W
Report Text: K3T5 291415Z AUTO 21003KT 4SM BR OVC003 16/16 A3020 RMK AO2 T01640160
Loading
Personal Weather Stations






























Interactive Weather Map New forecast layout! Learn more

10-Day Weather Forecast

Advertisements
Track Severe Weather on mobile